sensor_id;sensor_type;location;lat;lon;timestamp;P1;durP1;ratioP1;P2;durP2;ratioP2
53915;SDS011;39827;49.652;18.770;2022-12-18T00:01:26;99.15;;;38.78;;
53915;SDS011;39827;49.652;18.770;2022-12-18T00:03:54;123.65;;;47.67;;
53915;SDS011;39827;49.652;18.770;2022-12-18T00:06:21;117.57;;;50.40;;
53915;SDS011;39827;49.652;18.770;2022-12-18T00:08:47;103.28;;;48.13;;
53915;SDS011;39827;49.652;18.770;2022-12-18T00:11:14;103.28;;;44.22;;
53915;SDS011;39827;49.652;18.770;2022-12-18T00:13:43;122.28;;;42.80;;
53915;SDS011;39827;49.652;18.770;2022-12-18T00:16:10;102.43;;;51.00;;
53915;SDS011;39827;49.652;18.770;2022-12-18T00:18:37;94.25;;;43.63;;
53915;SDS011;39827;49.652;18.770;2022-12-18T00:21:03;107.32;;;46.65;;
53915;SDS011;39827;49.652;18.770;2022-12-18T00:23:31;118.32;;;67.45;;
53915;SDS011;39827;49.652;18.770;2022-12-18T00:26:00;117.53;;;83.07;;
53915;SDS011;39827;49.652;18.770;2022-12-18T00:28:29;111.60;;;76.20;;
53915;SDS011;39827;49.652;18.770;2022-12-18T00:31:05;110.97;;;81.57;;
53915;SDS011;39827;49.652;18.770;2022-12-18T00:33:32;114.82;;;71.90;;
53915;SDS011;39827;49.652;18.770;2022-12-18T00:36:05;122.35;;;75.93;;
53915;SDS011;39827;49.652;18.770;2022-12-18T00:41:06;116.40;;;64.00;;
53915;SDS011;39827;49.652;18.770;2022-12-18T00:43:33;121.90;;;76.38;;
53915;SDS011;39827;49.652;18.770;2022-12-18T00:45:59;96.72;;;48.22;;
53915;SDS011;39827;49.652;18.770;2022-12-18T00:48:24;131.07;;;79.60;;
53915;SDS011;39827;49.652;18.770;2022-12-18T00:50:50;110.30;;;71.03;;
53915;SDS011;39827;49.652;18.770;2022-12-18T00:53:15;124.15;;;75.47;;
53915;SDS011;39827;49.652;18.770;2022-12-18T00:55:41;125.15;;;87.40;;
53915;SDS011;39827;49.652;18.770;2022-12-18T00:58:07;122.32;;;93.03;;
53915;SDS011;39827;49.652;18.770;2022-12-18T01:00:34;122.05;;;79.57;;
53915;SDS011;39827;49.652;18.770;2022-12-18T01:03:00;124.13;;;85.57;;
53915;SDS011;39827;49.652;18.770;2022-12-18T01:05:25;121.85;;;96.10;;
53915;SDS011;39827;49.652;18.770;2022-12-18T01:07:50;123.15;;;89.15;;
53915;SDS011;39827;49.652;18.770;2022-12-18T01:10:16;101.97;;;66.75;;
53915;SDS011;39827;49.652;18.770;2022-12-18T01:12:41;128.93;;;73.97;;
53915;SDS011;39827;49.652;18.770;2022-12-18T01:15:07;121.25;;;87.95;;
53915;SDS011;39827;49.652;18.770;2022-12-18T01:17:33;123.10;;;80.45;;
53915;SDS011;39827;49.652;18.770;2022-12-18T01:19:58;132.23;;;90.05;;
53915;SDS011;39827;49.652;18.770;2022-12-18T01:22:24;111.93;;;55.13;;
53915;SDS011;39827;49.652;18.770;2022-12-18T01:24:49;100.70;;;46.33;;
53915;SDS011;39827;49.652;18.770;2022-12-18T01:27:15;127.80;;;80.13;;
53915;SDS011;39827;49.652;18.770;2022-12-18T01:29:40;137.18;;;93.43;;
53915;SDS011;39827;49.652;18.770;2022-12-18T01:32:06;125.50;;;93.47;;
53915;SDS011;39827;49.652;18.770;2022-12-18T01:34:31;134.45;;;86.90;;
53915;SDS011;39827;49.652;18.770;2022-12-18T01:36:57;119.25;;;82.80;;
53915;SDS011;39827;49.652;18.770;2022-12-18T01:39:22;104.85;;;69.97;;
53915;SDS011;39827;49.652;18.770;2022-12-18T01:41:48;119.95;;;77.70;;
53915;SDS011;39827;49.652;18.770;2022-12-18T01:47:14;105.95;;;76.63;;
53915;SDS011;39827;49.652;18.770;2022-12-18T01:49:43;116.55;;;75.43;;
53915;SDS011;39827;49.652;18.770;2022-12-18T01:52:08;112.78;;;70.05;;
53915;SDS011;39827;49.652;18.770;2022-12-18T01:54:34;110.85;;;49.78;;
53915;SDS011;39827;49.652;18.770;2022-12-18T01:56:59;95.10;;;37.63;;
53915;SDS011;39827;49.652;18.770;2022-12-18T01:59:25;98.80;;;36.35;;
53915;SDS011;39827;49.652;18.770;2022-12-18T02:01:52;86.55;;;35.88;;
53915;SDS011;39827;49.652;18.770;2022-12-18T02:04:25;99.13;;;38.65;;
53915;SDS011;39827;49.652;18.770;2022-12-18T02:07:12;101.07;;;40.83;;
53915;SDS011;39827;49.652;18.770;2022-12-18T02:09:47;113.57;;;49.38;;
53915;SDS011;39827;49.652;18.770;2022-12-18T02:12:22;101.45;;;45.78;;
53915;SDS011;39827;49.652;18.770;2022-12-18T02:17:34;95.40;;;39.20;;
53915;SDS011;39827;49.652;18.770;2022-12-18T02:28:28;104.97;;;37.00;;
53915;SDS011;39827;49.652;18.770;2022-12-18T02:31:00;93.50;;;40.05;;
53915;SDS011;39827;49.652;18.770;2022-12-18T02:33:27;100.60;;;43.25;;
53915;SDS011;39827;49.652;18.770;2022-12-18T02:35:55;95.50;;;44.40;;
53915;SDS011;39827;49.652;18.770;2022-12-18T02:38:23;100.88;;;45.90;;
53915;SDS011;39827;49.652;18.770;2022-12-18T02:40:50;109.95;;;48.40;;
53915;SDS011;39827;49.652;18.770;2022-12-18T02:43:18;99.00;;;44.78;;
53915;SDS011;39827;49.652;18.770;2022-12-18T02:45:52;102.07;;;47.35;;
53915;SDS011;39827;49.652;18.770;2022-12-18T02:48:22;105.60;;;48.28;;
53915;SDS011;39827;49.652;18.770;2022-12-18T02:53:58;109.78;;;59.13;;
53915;SDS011;39827;49.652;18.770;2022-12-18T02:56:51;105.30;;;56.53;;
53915;SDS011;39827;49.652;18.770;2022-12-18T02:59:31;104.88;;;34.67;;
53915;SDS011;39827;49.652;18.770;2022-12-18T03:05:12;107.60;;;59.40;;
53915;SDS011;39827;49.652;18.770;2022-12-18T03:07:46;107.93;;;49.42;;
53915;SDS011;39827;49.652;18.770;2022-12-18T03:10:19;113.05;;;56.50;;
53915;SDS011;39827;49.652;18.770;2022-12-18T03:12:59;107.85;;;63.38;;
53915;SDS011;39827;49.652;18.770;2022-12-18T03:15:36;106.88;;;49.85;;
53915;SDS011;39827;49.652;18.770;2022-12-18T03:18:08;96.75;;;40.45;;
53915;SDS011;39827;49.652;18.770;2022-12-18T03:20:38;98.38;;;40.55;;
53915;SDS011;39827;49.652;18.770;2022-12-18T03:23:11;88.72;;;32.53;;
53915;SDS011;39827;49.652;18.770;2022-12-18T03:25:41;96.63;;;38.67;;
53915;SDS011;39827;49.652;18.770;2022-12-18T03:28:10;86.07;;;31.02;;
53915;SDS011;39827;49.652;18.770;2022-12-18T03:30:40;81.55;;;27.27;;
53915;SDS011;39827;49.652;18.770;2022-12-18T03:33:10;94.80;;;30.83;;
53915;SDS011;39827;49.652;18.770;2022-12-18T03:35:42;89.82;;;30.38;;
53915;SDS011;39827;49.652;18.770;2022-12-18T03:38:09;90.32;;;30.15;;
53915;SDS011;39827;49.652;18.770;2022-12-18T03:40:41;85.80;;;27.88;;
53915;SDS011;39827;49.652;18.770;2022-12-18T03:43:23;83.57;;;25.35;;
53915;SDS011;39827;49.652;18.770;2022-12-18T03:45:56;96.35;;;32.83;;
53915;SDS011;39827;49.652;18.770;2022-12-18T03:48:31;91.25;;;27.35;;
53915;SDS011;39827;49.652;18.770;2022-12-18T03:51:08;112.32;;;48.47;;
53915;SDS011;39827;49.652;18.770;2022-12-18T03:53:49;113.97;;;64.53;;
53915;SDS011;39827;49.652;18.770;2022-12-18T03:56:29;99.25;;;46.95;;
53915;SDS011;39827;49.652;18.770;2022-12-18T03:58:57;108.05;;;35.25;;
53915;SDS011;39827;49.652;18.770;2022-12-18T04:01:35;98.65;;;27.77;;
53915;SDS011;39827;49.652;18.770;2022-12-18T04:04:04;87.05;;;27.17;;
53915;SDS011;39827;49.652;18.770;2022-12-18T04:06:30;87.68;;;29.40;;
53915;SDS011;39827;49.652;18.770;2022-12-18T04:08:57;80.35;;;31.27;;
53915;SDS011;39827;49.652;18.770;2022-12-18T04:11:23;85.47;;;28.83;;
53915;SDS011;39827;49.652;18.770;2022-12-18T04:13:49;91.68;;;27.92;;
53915;SDS011;39827;49.652;18.770;2022-12-18T04:16:14;107.45;;;33.75;;
53915;SDS011;39827;49.652;18.770;2022-12-18T04:18:39;93.70;;;36.28;;
53915;SDS011;39827;49.652;18.770;2022-12-18T04:21:05;100.07;;;32.25;;
53915;SDS011;39827;49.652;18.770;2022-12-18T04:23:30;85.53;;;27.98;;
53915;SDS011;39827;49.652;18.770;2022-12-18T04:25:55;95.40;;;30.98;;
53915;SDS011;39827;49.652;18.770;2022-12-18T04:28:21;77.93;;;25.77;;
53915;SDS011;39827;49.652;18.770;2022-12-18T04:30:46;97.38;;;26.02;;
53915;SDS011;39827;49.652;18.770;2022-12-18T04:33:12;92.47;;;26.50;;
53915;SDS011;39827;49.652;18.770;2022-12-18T04:35:38;90.28;;;25.95;;
53915;SDS011;39827;49.652;18.770;2022-12-18T04:38:05;81.60;;;25.55;;
53915;SDS011;39827;49.652;18.770;2022-12-18T04:40:31;93.00;;;26.33;;
53915;SDS011;39827;49.652;18.770;2022-12-18T04:42:57;77.20;;;26.00;;
53915;SDS011;39827;49.652;18.770;2022-12-18T04:45:22;79.55;;;26.42;;
53915;SDS011;39827;49.652;18.770;2022-12-18T04:47:47;92.43;;;26.60;;
53915;SDS011;39827;49.652;18.770;2022-12-18T04:50:12;76.15;;;25.88;;
53915;SDS011;39827;49.652;18.770;2022-12-18T04:52:38;92.82;;;27.42;;
53915;SDS011;39827;49.652;18.770;2022-12-18T04:55:03;92.70;;;28.63;;
53915;SDS011;39827;49.652;18.770;2022-12-18T04:57:29;89.13;;;26.80;;
53915;SDS011;39827;49.652;18.770;2022-12-18T04:59:54;95.63;;;27.20;;
53915;SDS011;39827;49.652;18.770;2022-12-18T05:02:19;84.55;;;27.30;;
53915;SDS011;39827;49.652;18.770;2022-12-18T05:04:45;91.25;;;29.40;;
53915;SDS011;39827;49.652;18.770;2022-12-18T05:07:10;91.10;;;29.02;;
53915;SDS011;39827;49.652;18.770;2022-12-18T05:09:35;88.25;;;30.08;;
53915;SDS011;39827;49.652;18.770;2022-12-18T05:12:01;85.20;;;29.25;;
53915;SDS011;39827;49.652;18.770;2022-12-18T05:14:26;93.63;;;28.75;;
53915;SDS011;39827;49.652;18.770;2022-12-18T05:16:54;83.18;;;29.02;;
53915;SDS011;39827;49.652;18.770;2022-12-18T05:19:19;88.15;;;28.80;;
53915;SDS011;39827;49.652;18.770;2022-12-18T05:21:44;109.88;;;33.30;;
53915;SDS011;39827;49.652;18.770;2022-12-18T05:24:09;77.47;;;28.33;;
53915;SDS011;39827;49.652;18.770;2022-12-18T05:26:35;94.47;;;29.27;;
53915;SDS011;39827;49.652;18.770;2022-12-18T05:29:00;89.25;;;28.20;;
53915;SDS011;39827;49.652;18.770;2022-12-18T05:31:25;72.32;;;28.42;;
53915;SDS011;39827;49.652;18.770;2022-12-18T05:33:51;82.72;;;28.38;;
53915;SDS011;39827;49.652;18.770;2022-12-18T05:36:16;90.72;;;28.42;;
53915;SDS011;39827;49.652;18.770;2022-12-18T05:38:41;67.45;;;24.98;;
53915;SDS011;39827;49.652;18.770;2022-12-18T05:41:07;95.07;;;27.83;;
53915;SDS011;39827;49.652;18.770;2022-12-18T05:43:34;79.78;;;26.08;;
53915;SDS011;39827;49.652;18.770;2022-12-18T05:46:04;66.30;;;25.83;;
53915;SDS011;39827;49.652;18.770;2022-12-18T05:48:31;81.93;;;27.52;;
53915;SDS011;39827;49.652;18.770;2022-12-18T05:50:56;74.95;;;26.50;;
53915;SDS011;39827;49.652;18.770;2022-12-18T05:53:29;71.80;;;22.88;;
53915;SDS011;39827;49.652;18.770;2022-12-18T05:55:54;77.35;;;25.15;;
53915;SDS011;39827;49.652;18.770;2022-12-18T05:58:25;75.18;;;24.33;;
53915;SDS011;39827;49.652;18.770;2022-12-18T06:00:50;78.32;;;21.92;;
53915;SDS011;39827;49.652;18.770;2022-12-18T06:03:16;65.43;;;20.00;;
53915;SDS011;39827;49.652;18.770;2022-12-18T06:05:43;69.20;;;20.65;;
53915;SDS011;39827;49.652;18.770;2022-12-18T06:08:10;69.38;;;21.48;;
53915;SDS011;39827;49.652;18.770;2022-12-18T06:10:36;71.93;;;22.48;;
53915;SDS011;39827;49.652;18.770;2022-12-18T06:13:02;72.68;;;21.02;;
53915;SDS011;39827;49.652;18.770;2022-12-18T06:15:28;59.30;;;18.35;;
53915;SDS011;39827;49.652;18.770;2022-12-18T06:17:53;70.00;;;18.48;;
53915;SDS011;39827;49.652;18.770;2022-12-18T06:20:19;70.75;;;19.45;;
53915;SDS011;39827;49.652;18.770;2022-12-18T06:22:45;81.38;;;25.83;;
53915;SDS011;39827;49.652;18.770;2022-12-18T06:25:10;71.38;;;32.58;;
53915;SDS011;39827;49.652;18.770;2022-12-18T06:27:35;91.30;;;37.00;;
53915;SDS011;39827;49.652;18.770;2022-12-18T06:30:01;71.50;;;37.30;;
53915;SDS011;39827;49.652;18.770;2022-12-18T06:32:27;73.75;;;34.67;;
53915;SDS011;39827;49.652;18.770;2022-12-18T06:34:52;70.95;;;24.45;;
53915;SDS011;39827;49.652;18.770;2022-12-18T06:37:18;73.68;;;26.58;;
53915;SDS011;39827;49.652;18.770;2022-12-18T06:39:44;70.95;;;30.15;;
53915;SDS011;39827;49.652;18.770;2022-12-18T06:42:09;70.90;;;26.98;;
53915;SDS011;39827;49.652;18.770;2022-12-18T06:44:35;62.47;;;24.10;;
53915;SDS011;39827;49.652;18.770;2022-12-18T06:47:00;65.82;;;24.23;;
53915;SDS011;39827;49.652;18.770;2022-12-18T06:49:25;66.97;;;23.38;;
53915;SDS011;39827;49.652;18.770;2022-12-18T06:51:51;72.97;;;27.95;;
53915;SDS011;39827;49.652;18.770;2022-12-18T06:54:16;73.93;;;32.78;;
53915;SDS011;39827;49.652;18.770;2022-12-18T06:56:42;87.53;;;35.30;;
53915;SDS011;39827;49.652;18.770;2022-12-18T06:59:10;71.82;;;34.45;;
53915;SDS011;39827;49.652;18.770;2022-12-18T07:01:35;81.25;;;38.58;;
53915;SDS011;39827;49.652;18.770;2022-12-18T07:04:00;69.40;;;29.45;;
53915;SDS011;39827;49.652;18.770;2022-12-18T07:06:26;88.35;;;32.10;;
53915;SDS011;39827;49.652;18.770;2022-12-18T07:08:52;96.15;;;36.28;;
53915;SDS011;39827;49.652;18.770;2022-12-18T07:11:18;61.65;;;22.08;;
53915;SDS011;39827;49.652;18.770;2022-12-18T07:13:44;70.10;;;30.80;;
53915;SDS011;39827;49.652;18.770;2022-12-18T07:16:11;63.67;;;22.55;;
53915;SDS011;39827;49.652;18.770;2022-12-18T07:18:39;57.58;;;21.63;;
53915;SDS011;39827;49.652;18.770;2022-12-18T07:21:05;80.82;;;32.17;;
53915;SDS011;39827;49.652;18.770;2022-12-18T07:23:32;92.03;;;38.15;;
53915;SDS011;39827;49.652;18.770;2022-12-18T07:26:08;83.38;;;30.08;;
53915;SDS011;39827;49.652;18.770;2022-12-18T07:28:36;75.38;;;30.60;;
53915;SDS011;39827;49.652;18.770;2022-12-18T07:31:03;116.25;;;49.70;;
53915;SDS011;39827;49.652;18.770;2022-12-18T07:33:36;68.13;;;36.13;;
53915;SDS011;39827;49.652;18.770;2022-12-18T07:36:02;97.97;;;33.65;;
53915;SDS011;39827;49.652;18.770;2022-12-18T07:38:29;79.25;;;28.55;;
53915;SDS011;39827;49.652;18.770;2022-12-18T07:40:59;91.20;;;41.28;;
53915;SDS011;39827;49.652;18.770;2022-12-18T07:43:25;77.15;;;27.52;;
53915;SDS011;39827;49.652;18.770;2022-12-18T07:45:50;66.72;;;27.83;;
53915;SDS011;39827;49.652;18.770;2022-12-18T07:48:16;66.10;;;22.17;;
53915;SDS011;39827;49.652;18.770;2022-12-18T07:50:41;70.68;;;20.27;;
53915;SDS011;39827;49.652;18.770;2022-12-18T07:53:06;72.03;;;27.52;;
53915;SDS011;39827;49.652;18.770;2022-12-18T07:55:32;78.10;;;26.40;;
53915;SDS011;39827;49.652;18.770;2022-12-18T07:58:00;75.50;;;25.02;;
53915;SDS011;39827;49.652;18.770;2022-12-18T08:00:27;67.60;;;22.40;;
53915;SDS011;39827;49.652;18.770;2022-12-18T08:02:52;80.82;;;23.00;;
53915;SDS011;39827;49.652;18.770;2022-12-18T08:05:18;76.68;;;23.45;;
53915;SDS011;39827;49.652;18.770;2022-12-18T08:07:43;69.28;;;24.02;;
53915;SDS011;39827;49.652;18.770;2022-12-18T08:10:09;75.43;;;25.50;;
53915;SDS011;39827;49.652;18.770;2022-12-18T08:12:34;86.30;;;27.25;;
53915;SDS011;39827;49.652;18.770;2022-12-18T08:15:00;79.03;;;26.25;;
53915;SDS011;39827;49.652;18.770;2022-12-18T08:17:25;66.00;;;23.77;;
53915;SDS011;39827;49.652;18.770;2022-12-18T08:19:50;70.53;;;22.42;;
53915;SDS011;39827;49.652;18.770;2022-12-18T08:22:16;70.28;;;23.88;;
53915;SDS011;39827;49.652;18.770;2022-12-18T08:24:41;64.90;;;22.10;;
53915;SDS011;39827;49.652;18.770;2022-12-18T08:27:06;65.32;;;22.30;;
53915;SDS011;39827;49.652;18.770;2022-12-18T08:29:31;72.70;;;23.27;;
53915;SDS011;39827;49.652;18.770;2022-12-18T08:31:57;65.07;;;24.02;;
53915;SDS011;39827;49.652;18.770;2022-12-18T08:34:22;67.45;;;22.63;;
53915;SDS011;39827;49.652;18.770;2022-12-18T08:36:47;72.15;;;24.25;;
53915;SDS011;39827;49.652;18.770;2022-12-18T08:39:13;78.13;;;24.52;;
53915;SDS011;39827;49.652;18.770;2022-12-18T08:41:38;67.35;;;23.35;;
53915;SDS011;39827;49.652;18.770;2022-12-18T08:44:04;62.22;;;22.30;;
53915;SDS011;39827;49.652;18.770;2022-12-18T08:46:48;66.85;;;28.45;;
53915;SDS011;39827;49.652;18.770;2022-12-18T08:49:13;72.53;;;39.45;;
53915;SDS011;39827;49.652;18.770;2022-12-18T08:51:38;87.57;;;53.17;;
53915;SDS011;39827;49.652;18.770;2022-12-18T08:54:04;95.55;;;67.40;;
53915;SDS011;39827;49.652;18.770;2022-12-18T08:56:30;105.57;;;80.10;;
53915;SDS011;39827;49.652;18.770;2022-12-18T08:58:56;102.63;;;76.65;;
53915;SDS011;39827;49.652;18.770;2022-12-18T09:01:22;102.82;;;83.38;;
53915;SDS011;39827;49.652;18.770;2022-12-18T09:03:48;89.30;;;41.17;;
53915;SDS011;39827;49.652;18.770;2022-12-18T09:06:15;83.38;;;43.63;;
53915;SDS011;39827;49.652;18.770;2022-12-18T09:08:42;84.03;;;49.22;;
53915;SDS011;39827;49.652;18.770;2022-12-18T09:11:30;83.20;;;44.10;;
53915;SDS011;39827;49.652;18.770;2022-12-18T09:13:55;83.25;;;45.60;;
53915;SDS011;39827;49.652;18.770;2022-12-18T09:16:21;77.72;;;47.53;;
53915;SDS011;39827;49.652;18.770;2022-12-18T09:18:47;79.88;;;56.35;;
53915;SDS011;39827;49.652;18.770;2022-12-18T09:21:14;85.95;;;47.88;;
53915;SDS011;39827;49.652;18.770;2022-12-18T09:23:41;92.63;;;47.75;;
53915;SDS011;39827;49.652;18.770;2022-12-18T09:26:07;89.47;;;43.83;;
53915;SDS011;39827;49.652;18.770;2022-12-18T09:28:32;84.10;;;41.28;;
53915;SDS011;39827;49.652;18.770;2022-12-18T09:30:58;83.57;;;40.30;;
53915;SDS011;39827;49.652;18.770;2022-12-18T09:33:28;81.78;;;39.47;;
53915;SDS011;39827;49.652;18.770;2022-12-18T09:35:53;88.47;;;39.20;;
53915;SDS011;39827;49.652;18.770;2022-12-18T09:38:19;79.25;;;35.50;;
53915;SDS011;39827;49.652;18.770;2022-12-18T09:40:46;76.10;;;32.53;;
53915;SDS011;39827;49.652;18.770;2022-12-18T09:43:18;70.35;;;27.63;;
53915;SDS011;39827;49.652;18.770;2022-12-18T09:45:49;81.68;;;28.00;;
53915;SDS011;39827;49.652;18.770;2022-12-18T09:48:23;75.60;;;25.48;;
53915;SDS011;39827;49.652;18.770;2022-12-18T09:50:53;82.97;;;27.60;;
53915;SDS011;39827;49.652;18.770;2022-12-18T09:53:24;74.32;;;28.23;;
53915;SDS011;39827;49.652;18.770;2022-12-18T09:55:53;86.00;;;37.33;;
53915;SDS011;39827;49.652;18.770;2022-12-18T09:58:41;82.57;;;40.22;;
53915;SDS011;39827;49.652;18.770;2022-12-18T10:01:16;91.13;;;42.20;;
53915;SDS011;39827;49.652;18.770;2022-12-18T10:03:45;83.30;;;37.97;;
53915;SDS011;39827;49.652;18.770;2022-12-18T10:06:14;84.32;;;38.90;;
53915;SDS011;39827;49.652;18.770;2022-12-18T10:17:01;148.52;;;58.65;;
53915;SDS011;39827;49.652;18.770;2022-12-18T10:19:42;113.70;;;49.50;;
53915;SDS011;39827;49.652;18.770;2022-12-18T10:24:49;89.97;;;35.92;;
53915;SDS011;39827;49.652;18.770;2022-12-18T10:27:30;95.10;;;33.15;;
53915;SDS011;39827;49.652;18.770;2022-12-18T10:29:55;95.53;;;36.97;;
53915;SDS011;39827;49.652;18.770;2022-12-18T10:32:23;90.82;;;38.10;;
53915;SDS011;39827;49.652;18.770;2022-12-18T10:34:53;81.25;;;36.47;;
53915;SDS011;39827;49.652;18.770;2022-12-18T10:37:21;92.00;;;34.13;;
53915;SDS011;39827;49.652;18.770;2022-12-18T10:40:05;97.40;;;39.45;;
53915;SDS011;39827;49.652;18.770;2022-12-18T10:42:34;94.10;;;39.97;;
53915;SDS011;39827;49.652;18.770;2022-12-18T10:45:10;100.47;;;40.15;;
53915;SDS011;39827;49.652;18.770;2022-12-18T10:47:48;83.32;;;34.40;;
53915;SDS011;39827;49.652;18.770;2022-12-18T10:50:26;82.07;;;33.75;;
53915;SDS011;39827;49.652;18.770;2022-12-18T10:52:58;85.07;;;37.22;;
53915;SDS011;39827;49.652;18.770;2022-12-18T10:55:32;94.15;;;40.13;;
53915;SDS011;39827;49.652;18.770;2022-12-18T11:03:34;102.60;;;46.67;;
53915;SDS011;39827;49.652;18.770;2022-12-18T11:06:06;101.55;;;46.58;;
53915;SDS011;39827;49.652;18.770;2022-12-18T11:08:43;101.90;;;47.47;;
53915;SDS011;39827;49.652;18.770;2022-12-18T11:11:22;102.97;;;46.70;;
53915;SDS011;39827;49.652;18.770;2022-12-18T11:16:36;114.32;;;50.20;;
53915;SDS011;39827;49.652;18.770;2022-12-18T11:19:20;159.48;;;53.60;;
53915;SDS011;39827;49.652;18.770;2022-12-18T11:22:03;163.07;;;58.30;;
53915;SDS011;39827;49.652;18.770;2022-12-18T11:24:49;90.93;;;41.65;;
53915;SDS011;39827;49.652;18.770;2022-12-18T11:27:19;98.80;;;45.63;;
53915;SDS011;39827;49.652;18.770;2022-12-18T11:29:44;125.68;;;54.38;;
53915;SDS011;39827;49.652;18.770;2022-12-18T11:32:22;93.93;;;45.28;;
53915;SDS011;39827;49.652;18.770;2022-12-18T11:37:33;94.72;;;43.85;;
53915;SDS011;39827;49.652;18.770;2022-12-18T11:40:06;87.50;;;43.90;;
53915;SDS011;39827;49.652;18.770;2022-12-18T11:42:41;97.55;;;48.88;;
53915;SDS011;39827;49.652;18.770;2022-12-18T11:50:26;98.75;;;55.47;;
53915;SDS011;39827;49.652;18.770;2022-12-18T11:52:59;135.60;;;64.47;;
53915;SDS011;39827;49.652;18.770;2022-12-18T12:15:42;228.13;;;91.85;;
53915;SDS011;39827;49.652;18.770;2022-12-18T12:23:22;81.40;;;48.40;;
53915;SDS011;39827;49.652;18.770;2022-12-18T12:25:59;86.53;;;45.63;;
53915;SDS011;39827;49.652;18.770;2022-12-18T12:31:09;80.38;;;39.90;;
53915;SDS011;39827;49.652;18.770;2022-12-18T12:33:51;77.57;;;33.08;;
53915;SDS011;39827;49.652;18.770;2022-12-18T12:39:21;89.20;;;35.88;;
53915;SDS011;39827;49.652;18.770;2022-12-18T12:41:51;74.45;;;31.70;;
53915;SDS011;39827;49.652;18.770;2022-12-18T12:44:37;72.63;;;28.30;;
53915;SDS011;39827;49.652;18.770;2022-12-18T12:47:31;76.68;;;28.55;;
53915;SDS011;39827;49.652;18.770;2022-12-18T12:49:58;82.55;;;26.13;;
53915;SDS011;39827;49.652;18.770;2022-12-18T12:54:55;63.60;;;24.85;;
53915;SDS011;39827;49.652;18.770;2022-12-18T12:57:33;56.78;;;22.13;;
53915;SDS011;39827;49.652;18.770;2022-12-18T13:05:19;71.13;;;24.50;;
53915;SDS011;39827;49.652;18.770;2022-12-18T13:08:04;59.58;;;19.73;;
53915;SDS011;39827;49.652;18.770;2022-12-18T13:10:40;65.88;;;21.23;;
53915;SDS011;39827;49.652;18.770;2022-12-18T13:13:07;66.20;;;22.70;;
53915;SDS011;39827;49.652;18.770;2022-12-18T13:15:44;62.80;;;22.20;;
53915;SDS011;39827;49.652;18.770;2022-12-18T13:18:14;70.97;;;20.50;;
53915;SDS011;39827;49.652;18.770;2022-12-18T13:23:23;106.67;;;29.20;;
53915;SDS011;39827;49.652;18.770;2022-12-18T13:26:00;93.07;;;25.00;;
53915;SDS011;39827;49.652;18.770;2022-12-18T13:31:13;54.90;;;19.30;;
53915;SDS011;39827;49.652;18.770;2022-12-18T13:33:43;80.68;;;20.63;;
53915;SDS011;39827;49.652;18.770;2022-12-18T13:38:47;110.90;;;25.15;;
53915;SDS011;39827;49.652;18.770;2022-12-18T13:41:38;157.15;;;47.45;;
53915;SDS011;39827;49.652;18.770;2022-12-18T13:44:11;124.00;;;34.45;;
53915;SDS011;39827;49.652;18.770;2022-12-18T13:46:49;58.15;;;25.13;;
53915;SDS011;39827;49.652;18.770;2022-12-18T13:51:55;69.97;;;33.90;;
53915;SDS011;39827;49.652;18.770;2022-12-18T13:54:27;72.30;;;35.10;;
53915;SDS011;39827;49.652;18.770;2022-12-18T13:56:58;64.53;;;28.02;;
53915;SDS011;39827;49.652;18.770;2022-12-18T13:59:32;66.03;;;26.35;;
53915;SDS011;39827;49.652;18.770;2022-12-18T14:02:00;63.75;;;26.40;;
53915;SDS011;39827;49.652;18.770;2022-12-18T14:04:33;57.95;;;22.58;;
53915;SDS011;39827;49.652;18.770;2022-12-18T14:07:19;72.82;;;25.73;;
53915;SDS011;39827;49.652;18.770;2022-12-18T14:09:48;76.03;;;27.52;;
53915;SDS011;39827;49.652;18.770;2022-12-18T14:12:17;88.43;;;29.33;;
53915;SDS011;39827;49.652;18.770;2022-12-18T14:15:05;92.22;;;35.72;;
53915;SDS011;39827;49.652;18.770;2022-12-18T14:17:35;92.07;;;53.95;;
53915;SDS011;39827;49.652;18.770;2022-12-18T14:20:01;166.65;;;151.85;;
53915;SDS011;39827;49.652;18.770;2022-12-18T14:22:27;79.85;;;34.58;;
53915;SDS011;39827;49.652;18.770;2022-12-18T14:25:14;83.28;;;26.98;;
53915;SDS011;39827;49.652;18.770;2022-12-18T14:30:38;74.25;;;26.52;;
53915;SDS011;39827;49.652;18.770;2022-12-18T14:35:31;83.10;;;26.17;;
53915;SDS011;39827;49.652;18.770;2022-12-18T14:38:11;81.00;;;24.88;;
53915;SDS011;39827;49.652;18.770;2022-12-18T14:40:42;81.05;;;25.02;;
53915;SDS011;39827;49.652;18.770;2022-12-18T14:43:11;79.05;;;25.42;;
53915;SDS011;39827;49.652;18.770;2022-12-18T14:45:37;85.85;;;26.77;;
53915;SDS011;39827;49.652;18.770;2022-12-18T14:48:48;75.15;;;22.20;;
53915;SDS011;39827;49.652;18.770;2022-12-18T14:51:18;51.65;;;19.33;;
53915;SDS011;39827;49.652;18.770;2022-12-18T14:53:46;75.28;;;27.13;;
53915;SDS011;39827;49.652;18.770;2022-12-18T14:56:23;65.22;;;27.80;;
53915;SDS011;39827;49.652;18.770;2022-12-18T15:01:32;91.47;;;29.60;;
53915;SDS011;39827;49.652;18.770;2022-12-18T15:04:00;95.28;;;30.75;;
53915;SDS011;39827;49.652;18.770;2022-12-18T15:06:29;72.60;;;32.53;;
53915;SDS011;39827;49.652;18.770;2022-12-18T15:08:55;81.90;;;30.17;;
53915;SDS011;39827;49.652;18.770;2022-12-18T15:13:54;99.82;;;30.65;;
53915;SDS011;39827;49.652;18.770;2022-12-18T15:16:19;104.35;;;30.33;;
53915;SDS011;39827;49.652;18.770;2022-12-18T15:18:45;85.68;;;28.45;;
53915;SDS011;39827;49.652;18.770;2022-12-18T15:21:15;94.88;;;31.63;;
53915;SDS011;39827;49.652;18.770;2022-12-18T15:26:09;118.38;;;46.35;;
53915;SDS011;39827;49.652;18.770;2022-12-18T15:33:39;99.80;;;82.13;;
53915;SDS011;39827;49.652;18.770;2022-12-18T15:36:08;147.50;;;100.15;;
53915;SDS011;39827;49.652;18.770;2022-12-18T15:38:35;132.48;;;79.97;;
53915;SDS011;39827;49.652;18.770;2022-12-18T15:41:01;100.07;;;35.55;;
53915;SDS011;39827;49.652;18.770;2022-12-18T15:43:28;76.32;;;32.75;;
53915;SDS011;39827;49.652;18.770;2022-12-18T15:46:03;83.78;;;33.95;;
53915;SDS011;39827;49.652;18.770;2022-12-18T15:48:32;101.68;;;38.67;;
53915;SDS011;39827;49.652;18.770;2022-12-18T15:50:59;84.57;;;31.40;;
53915;SDS011;39827;49.652;18.770;2022-12-18T15:53:25;70.57;;;26.17;;
53915;SDS011;39827;49.652;18.770;2022-12-18T15:55:55;74.57;;;24.98;;
53915;SDS011;39827;49.652;18.770;2022-12-18T15:58:38;78.97;;;32.28;;
53915;SDS011;39827;49.652;18.770;2022-12-18T16:01:04;104.20;;;49.72;;
53915;SDS011;39827;49.652;18.770;2022-12-18T16:03:29;121.65;;;97.70;;
53915;SDS011;39827;49.652;18.770;2022-12-18T16:05:55;115.47;;;104.22;;
53915;SDS011;39827;49.652;18.770;2022-12-18T16:08:20;56.63;;;35.05;;
53915;SDS011;39827;49.652;18.770;2022-12-18T16:10:46;115.03;;;101.72;;
53915;SDS011;39827;49.652;18.770;2022-12-18T16:13:12;140.88;;;101.72;;
53915;SDS011;39827;49.652;18.770;2022-12-18T16:15:41;125.40;;;114.20;;